createdAt,value
2023-01-02T00:00:02.466Z,92.32
2023-01-02T00:02:35.914Z,91.65
2023-01-02T00:05:10.240Z,91.56
2023-01-02T00:07:43.462Z,91.77
2023-01-02T00:10:17.027Z,92.32
2023-01-02T00:12:51.579Z,92.15
2023-01-02T00:15:26.674Z,91.93
2023-01-02T00:18:00.333Z,92.03
2023-01-02T00:20:34.529Z,91.44
2023-01-02T00:23:07.627Z,91.48
2023-01-02T00:25:41.013Z,91.61
2023-01-02T00:28:14.916Z,91.12
2023-01-02T00:30:49.788Z,92.00
2023-01-02T00:33:23.882Z,92.02
2023-01-02T00:35:57.104Z,92.44
2023-01-02T00:38:30.323Z,92.73
2023-01-02T00:41:03.597Z,92.97
2023-01-02T00:43:37.342Z,92.64
2023-01-02T00:46:12.525Z,93.11
2023-01-02T00:48:46.089Z,93.01
2023-01-02T00:51:19.335Z,92.64
2023-01-02T00:53:52.617Z,92.75
2023-01-02T00:56:25.855Z,92.99
2023-01-02T00:58:59.884Z,92.37
2023-01-02T01:01:34.860Z,92.78
2023-01-02T01:04:08.150Z,92.67
2023-01-02T01:06:41.442Z,92.94
2023-01-02T01:09:14.734Z,92.83
2023-01-02T01:11:48.326Z,92.33
2023-01-02T01:14:23.709Z,91.67
2023-01-02T01:16:58.950Z,92.10
2023-01-02T01:19:32.302Z,91.87
2023-01-02T01:22:05.503Z,92.15
2023-01-02T01:24:38.744Z,91.55
2023-01-02T01:27:11.970Z,92.37
2023-01-02T01:29:45.331Z,92.52
2023-01-02T01:32:20.552Z,91.74
2023-01-02T01:34:53.866Z,91.96
2023-01-02T01:37:27.176Z,92.20
2023-01-02T01:40:01.061Z,92.02
2023-01-02T01:42:35.045Z,92.11
2023-01-02T01:45:15.503Z,92.16
2023-01-02T01:47:54.304Z,92.47
2023-01-02T01:50:32.586Z,92.55
2023-01-02T01:53:11.335Z,92.78
2023-01-02T01:55:48.148Z,92.27
2023-01-02T01:58:25.937Z,92.30
2023-01-02T02:00:59.986Z,91.84
2023-01-02T02:03:37.086Z,92.29
2023-01-02T02:06:11.468Z,92.53
2023-01-02T02:08:49.148Z,92.55
2023-01-02T02:11:23.772Z,92.58
2023-01-02T02:14:00.429Z,92.46
2023-01-02T02:16:43.016Z,92.37
2023-01-02T02:19:47.769Z,92.51
2023-01-02T02:22:32.917Z,91.99
2023-01-02T02:25:34.693Z,91.65
2023-01-02T02:28:39.055Z,91.63
2023-01-02T02:31:21.611Z,92.52
2023-01-02T02:34:00.125Z,92.36
2023-01-02T02:36:39.844Z,92.00
2023-01-02T02:39:22.121Z,91.51
2023-01-02T02:41:59.705Z,91.89
2023-01-02T02:44:41.806Z,92.51
2023-01-02T02:47:23.401Z,92.76
2023-01-02T02:50:03.763Z,93.30
2023-01-02T02:52:43.324Z,93.27
2023-01-02T02:55:22.258Z,93.05
2023-01-02T02:57:57.991Z,92.66
2023-01-02T03:00:31.330Z,91.74
2023-01-02T03:03:17.392Z,92.11
2023-01-02T03:06:07.151Z,93.09
2023-01-02T03:08:46.044Z,93.68
2023-01-02T03:11:19.825Z,94.45
2023-01-02T03:14:03.302Z,93.57
2023-01-02T03:16:40.895Z,93.59
2023-01-02T03:19:24.339Z,93.81
2023-01-02T03:22:02.444Z,94.18
2023-01-02T03:24:38.024Z,93.12
2023-01-02T03:27:15.996Z,92.61
2023-01-02T03:29:54.872Z,92.97
2023-01-02T03:32:32.115Z,92.44
2023-01-02T03:35:14.944Z,92.37
2023-01-02T03:37:55.435Z,92.34
2023-01-02T03:40:35.393Z,91.86
2023-01-02T03:43:12.513Z,91.79
2023-01-02T03:45:52.314Z,92.38
2023-01-02T03:48:32.664Z,91.68
2023-01-02T03:51:08.142Z,92.55
2023-01-02T03:53:41.949Z,92.14
2023-01-02T03:56:24.458Z,91.35
2023-01-02T03:59:02.673Z,92.40
2023-01-02T04:01:41.768Z,92.55
2023-01-02T04:04:19.911Z,91.40
2023-01-02T04:06:59.655Z,92.51
2023-01-02T04:09:35.245Z,92.02
2023-01-02T04:12:14.898Z,91.81
2023-01-02T04:14:52.569Z,92.60
2023-01-02T04:17:28.237Z,92.96
2023-01-02T04:20:06.633Z,92.46
2023-01-02T04:22:49.268Z,93.74
2023-01-02T04:25:27.354Z,93.58
2023-01-02T04:28:03.986Z,93.38
2023-01-02T04:30:42.638Z,93.24
2023-01-02T04:33:18.991Z,93.19
2023-01-02T04:35:52.655Z,92.91
2023-01-02T04:38:27.010Z,94.37
2023-01-02T04:41:00.785Z,93.97
2023-01-02T04:43:34.258Z,94.25
2023-01-02T04:46:07.647Z,94.70
2023-01-02T04:48:40.976Z,94.38
2023-01-02T04:51:14.922Z,94.47
2023-01-02T04:53:50.083Z,94.37
2023-01-02T04:56:23.414Z,94.12
2023-01-02T04:58:56.669Z,93.18
2023-01-02T05:01:30.025Z,93.75
2023-01-02T05:04:03.395Z,94.23
2023-01-02T05:06:36.981Z,93.17
2023-01-02T05:09:11.983Z,93.52
2023-01-02T05:11:46.075Z,93.49
2023-01-02T05:14:19.688Z,93.49
2023-01-02T05:16:53.295Z,94.05
2023-01-02T05:19:26.593Z,93.45
2023-01-02T05:22:17.628Z,92.99
2023-01-02T05:24:52.310Z,93.54
2023-01-02T05:27:25.761Z,92.85
2023-01-02T05:29:59.033Z,92.93
2023-01-02T05:32:32.521Z,92.67
2023-01-02T05:35:06.396Z,92.47
2023-01-02T05:37:39.948Z,92.73
2023-01-02T05:40:14.879Z,93.50
2023-01-02T05:42:48.144Z,93.49
2023-01-02T05:45:21.409Z,93.74
2023-01-02T05:47:54.675Z,94.05
2023-01-02T05:50:28.190Z,93.09
2023-01-02T05:53:01.727Z,92.97
2023-01-02T05:55:37.122Z,93.28
2023-01-02T05:58:10.333Z,93.39
2023-01-02T06:00:43.473Z,92.93
2023-01-02T06:03:16.791Z,93.84
2023-01-02T06:05:50.049Z,93.87
2023-01-02T06:08:23.535Z,92.89
2023-01-02T06:10:58.510Z,94.18
2023-01-02T06:13:33.391Z,93.32
2023-01-02T06:16:08.800Z,93.12
2023-01-02T06:18:42.133Z,92.79
2023-01-02T06:21:17.127Z,94.30
2023-01-02T06:23:55.604Z,93.86
2023-01-02T06:26:34.886Z,93.20
2023-01-02T06:29:08.841Z,93.68
2023-01-02T06:31:44.872Z,93.01
2023-01-02T06:34:22.879Z,92.51
2023-01-02T06:36:56.507Z,92.44
2023-01-02T06:39:29.934Z,92.42
2023-01-02T06:42:04.580Z,92.30
2023-01-02T06:44:37.691Z,92.18
2023-01-02T06:47:10.963Z,91.75
2023-01-02T06:49:44.531Z,92.35
2023-01-02T06:52:18.138Z,92.11
2023-01-02T06:54:51.840Z,92.28
2023-01-02T06:57:26.478Z,91.78
2023-01-02T06:59:59.766Z,92.12
2023-01-02T07:02:33.184Z,91.41
2023-01-02T07:05:07.306Z,91.18
2023-01-02T07:07:40.974Z,91.39
2023-01-02T07:10:14.318Z,91.07
2023-01-02T07:12:49.927Z,91.27
2023-01-02T07:15:23.634Z,90.93
2023-01-02T07:17:57.213Z,91.48
2023-01-02T07:20:30.473Z,91.39
2023-01-02T07:23:03.659Z,91.74
2023-01-02T07:25:40.899Z,91.03
2023-01-02T07:28:18.890Z,91.30
2023-01-02T07:30:52.541Z,91.56
2023-01-02T07:33:25.660Z,91.52
2023-01-02T07:35:59.693Z,91.15
2023-01-02T07:38:33.496Z,91.53
2023-01-02T07:41:15.508Z,91.48
2023-01-02T07:43:50.909Z,91.34
2023-01-02T07:46:24.432Z,91.05
2023-01-02T07:48:57.640Z,91.11
2023-01-02T07:51:32.294Z,91.07
2023-01-02T07:54:06.015Z,90.66
2023-01-02T07:56:39.406Z,90.47
2023-01-02T07:59:14.100Z,90.47
2023-01-02T08:01:48.041Z,90.07
2023-01-02T08:04:21.853Z,89.92
2023-01-02T08:06:55.223Z,89.81
2023-01-02T08:09:28.636Z,89.38
2023-01-02T08:12:02.944Z,89.50
2023-01-02T08:14:38.474Z,88.94
2023-01-02T08:17:12.143Z,88.69
2023-01-02T08:19:45.476Z,88.38
2023-01-02T08:22:19.010Z,88.13
2023-01-02T08:24:52.498Z,88.08
2023-01-02T08:27:26.226Z,87.71
2023-01-02T08:30:01.090Z,87.90
2023-01-02T08:32:37.110Z,87.88
2023-01-02T08:35:10.996Z,88.07
2023-01-02T08:37:50.084Z,87.55
2023-01-02T08:40:24.003Z,87.63
2023-01-02T08:42:57.391Z,87.25
2023-01-02T08:45:32.309Z,86.64
2023-01-02T08:48:21.535Z,86.75
2023-01-02T08:50:55.200Z,86.81
2023-01-02T08:53:28.521Z,86.94
2023-01-02T08:56:23.009Z,85.98
2023-01-02T08:58:58.312Z,86.22
2023-01-02T09:01:33.877Z,85.57
2023-01-02T09:04:12.536Z,86.03
2023-01-02T09:06:46.833Z,85.83
2023-01-02T09:09:20.298Z,86.01
2023-01-02T09:11:54.452Z,85.35
2023-01-02T09:14:28.222Z,85.68
2023-01-02T09:17:03.306Z,86.27
2023-01-02T09:19:37.114Z,86.07
2023-01-02T09:22:10.643Z,86.08
2023-01-02T09:24:44.080Z,85.92
2023-01-02T09:27:17.680Z,86.43
2023-01-02T09:29:51.075Z,85.57
2023-01-02T09:32:25.646Z,85.91
2023-01-02T09:34:59.703Z,86.00
2023-01-02T09:37:32.891Z,86.25
2023-01-02T09:40:07.102Z,85.82
2023-01-02T09:42:40.602Z,85.36
2023-01-02T09:45:15.620Z,85.30
2023-01-02T09:47:51.948Z,85.80
2023-01-02T09:50:28.030Z,84.88
2023-01-02T09:53:02.038Z,85.14
2023-01-02T09:55:39.449Z,85.96
2023-01-02T09:58:20.658Z,86.40
2023-01-02T10:00:54.340Z,86.05
2023-01-02T10:03:36.293Z,86.18
2023-01-02T10:06:16.519Z,86.35
2023-01-02T10:09:03.223Z,85.72
2023-01-02T10:11:44.553Z,85.34
2023-01-02T10:14:31.439Z,83.74
2023-01-02T10:17:14.000Z,83.90
2023-01-02T10:19:55.018Z,83.19
2023-01-02T10:22:36.656Z,83.17
2023-01-02T10:25:15.897Z,82.69
2023-01-02T10:27:53.189Z,82.42
2023-01-02T10:30:28.927Z,82.87
2023-01-02T10:33:05.558Z,82.85
2023-01-02T10:35:44.364Z,82.74
2023-01-02T10:38:20.885Z,82.87
2023-01-02T10:40:54.555Z,83.00
2023-01-02T10:43:29.490Z,82.27
2023-01-02T10:46:04.682Z,82.05
2023-01-02T10:48:39.825Z,80.78
2023-01-02T10:51:17.352Z,80.74
2023-01-02T10:54:01.817Z,80.38
2023-01-02T10:56:37.341Z,80.97
2023-01-02T10:59:21.971Z,80.87
2023-01-02T11:01:57.332Z,79.80
2023-01-02T11:04:31.986Z,79.83
2023-01-02T11:07:06.676Z,80.60
2023-01-02T11:09:40.378Z,80.22
2023-01-02T11:12:15.324Z,79.30
2023-01-02T11:14:50.132Z,79.16
2023-01-02T11:17:25.962Z,79.19
2023-01-02T11:19:59.229Z,78.44
2023-01-02T11:22:37.404Z,78.47
2023-01-02T11:25:20.240Z,78.14
2023-01-02T11:27:58.686Z,78.71
2023-01-02T11:30:37.551Z,79.18
2023-01-02T11:33:20.821Z,77.92
2023-01-02T11:35:56.498Z,76.86
2023-01-02T11:38:45.670Z,77.34
2023-01-02T11:41:48.520Z,77.22
2023-01-02T11:44:26.472Z,76.52
2023-01-02T11:47:01.463Z,76.18
2023-01-02T11:49:39.383Z,76.66
2023-01-02T11:52:17.510Z,76.96
2023-01-02T11:54:57.381Z,76.59
2023-01-02T11:57:39.638Z,76.04
2023-01-02T12:00:15.871Z,76.40
2023-01-02T12:02:52.084Z,76.85
2023-01-02T12:05:34.054Z,76.25
2023-01-02T12:08:17.558Z,76.22
2023-01-02T12:10:59.388Z,75.38
2023-01-02T12:13:51.232Z,75.01
2023-01-02T12:16:35.009Z,74.91
2023-01-02T12:19:42.425Z,76.10
2023-01-02T12:22:28.566Z,76.27
2023-01-02T12:25:24.694Z,75.58
2023-01-02T12:28:06.460Z,75.13
2023-01-02T12:30:49.731Z,75.04
2023-01-02T12:33:40.192Z,74.84
2023-01-02T12:36:34.162Z,75.25
2023-01-02T12:39:26.599Z,75.83
2023-01-02T12:42:13.319Z,76.14
2023-01-02T12:44:52.151Z,76.95
2023-01-02T12:47:36.241Z,75.70
2023-01-02T12:50:28.942Z,75.87
2023-01-02T12:53:15.201Z,74.98
2023-01-02T12:55:59.406Z,74.99
2023-01-02T12:58:47.965Z,74.94
2023-01-02T13:01:31.393Z,74.91
2023-01-02T13:04:15.265Z,75.14
2023-01-02T13:06:53.413Z,75.39
2023-01-02T13:09:33.498Z,75.78
2023-01-02T13:12:12.082Z,76.63
2023-01-02T13:14:51.607Z,76.89
2023-01-02T13:17:37.846Z,76.38
2023-01-02T13:20:22.805Z,76.77
2023-01-02T13:23:05.852Z,77.28
2023-01-02T13:25:45.955Z,78.19
2023-01-02T13:28:20.200Z,77.68
2023-01-02T13:31:35.307Z,77.31
2023-01-02T13:33:57.488Z,76.68
2023-01-02T13:36:39.376Z,77.40
2023-01-02T13:39:19.845Z,77.40
2023-01-02T13:42:14.653Z,77.53
2023-01-02T13:44:52.255Z,77.47
2023-01-02T13:47:34.898Z,77.32
2023-01-02T13:50:19.712Z,77.79
2023-01-02T13:53:01.110Z,77.78
2023-01-02T13:55:35.822Z,77.52
2023-01-02T13:58:40.541Z,77.58
2023-01-02T14:01:43.694Z,77.84
2023-01-02T14:04:46.969Z,78.26
2023-01-02T14:07:44.997Z,78.86
2023-01-02T14:10:35.488Z,79.27
2023-01-02T14:13:18.944Z,79.50
2023-01-02T14:16:39.724Z,79.53
2023-01-02T14:19:23.155Z,80.43
2023-01-02T14:22:06.882Z,80.76
2023-01-02T14:24:44.333Z,80.98
2023-01-02T14:27:23.836Z,80.54
2023-01-02T14:30:01.029Z,81.60
2023-01-02T14:32:39.306Z,81.23
2023-01-02T14:35:26.167Z,81.80
2023-01-02T14:38:10.883Z,81.82
2023-01-02T14:40:46.812Z,81.65
2023-01-02T14:43:32.351Z,81.35
2023-01-02T14:46:16.364Z,81.89
2023-01-02T14:48:54.435Z,82.23
2023-01-02T14:51:34.057Z,82.94
2023-01-02T14:54:15.668Z,83.30
2023-01-02T14:56:55.621Z,83.44
2023-01-02T14:59:31.567Z,82.84
2023-01-02T15:02:10.254Z,83.86
2023-01-02T15:04:47.196Z,84.13
2023-01-02T15:07:26.738Z,84.37
2023-01-02T15:10:04.156Z,84.36
2023-01-02T15:13:03.140Z,84.12
2023-01-02T15:15:40.981Z,84.59
2023-01-02T15:18:22.725Z,85.18
2023-01-02T15:20:58.429Z,85.57
2023-01-02T15:23:31.656Z,85.53
2023-01-02T15:26:31.363Z,85.67
2023-01-02T15:29:19.929Z,86.22
2023-01-02T15:31:55.215Z,86.47
2023-01-02T15:34:30.864Z,85.88
2023-01-02T15:37:07.100Z,86.19
2023-01-02T15:39:43.805Z,86.44
2023-01-02T15:42:38.523Z,88.35
2023-01-02T15:45:16.331Z,88.15
2023-01-02T15:47:52.582Z,88.60
2023-01-02T15:50:28.244Z,87.99
2023-01-02T15:53:05.182Z,88.14
2023-01-02T15:55:40.391Z,89.25
2023-01-02T15:58:21.871Z,89.58
2023-01-02T16:01:15.387Z,89.52
2023-01-02T16:04:01.588Z,90.26
2023-01-02T16:06:41.553Z,89.92
2023-01-02T16:09:22.628Z,90.91
2023-01-02T16:11:58.750Z,90.41
2023-01-02T16:14:37.644Z,90.86
2023-01-02T16:17:22.816Z,90.78
2023-01-02T16:19:59.970Z,91.61
2023-01-02T16:22:44.028Z,91.48
2023-01-02T16:25:20.043Z,90.84
2023-01-02T16:27:57.304Z,91.76
2023-01-02T16:30:38.135Z,91.54
2023-01-02T16:33:24.232Z,92.16
2023-01-02T16:36:07.409Z,91.97
2023-01-02T16:38:49.416Z,92.99
2023-01-02T16:42:19.641Z,92.10
2023-01-02T16:44:56.263Z,92.32
2023-01-02T16:47:36.296Z,93.03
2023-01-02T16:50:18.306Z,93.22
2023-01-02T16:52:53.288Z,93.52
2023-01-02T16:55:27.163Z,93.51
2023-01-02T16:58:01.378Z,93.36
2023-01-02T17:00:39.848Z,93.34
2023-01-02T17:03:19.710Z,93.36
2023-01-02T17:06:01.239Z,93.59
2023-01-02T17:08:36.391Z,93.04
2023-01-02T17:11:09.941Z,93.07
2023-01-02T17:13:43.841Z,93.50
2023-01-02T17:16:18.450Z,93.14
2023-01-02T17:18:52.096Z,92.47
2023-01-02T17:21:32.573Z,93.26
2023-01-02T17:24:06.693Z,93.38
2023-01-02T17:26:40.369Z,92.37
2023-01-02T17:29:14.053Z,92.53
2023-01-02T17:31:47.727Z,92.19
2023-01-02T17:34:21.290Z,92.38
2023-01-02T17:36:57.104Z,92.61
2023-01-02T17:39:30.590Z,92.64
2023-01-02T17:42:03.919Z,91.92
2023-01-02T17:44:38.895Z,91.91
2023-01-02T17:50:07.203Z,92.06
2023-01-02T17:52:41.712Z,91.84
2023-01-02T17:55:15.367Z,92.56
2023-01-02T17:57:49.080Z,92.62
2023-01-02T18:00:23.800Z,92.36
2023-01-02T18:02:57.545Z,92.83
2023-01-02T18:05:32.007Z,92.41
2023-01-02T18:08:07.147Z,92.10
2023-01-02T18:10:40.964Z,91.96
2023-01-02T18:13:14.580Z,91.78
2023-01-02T18:15:49.042Z,91.99
2023-01-02T18:18:24.806Z,92.10
2023-01-02T18:20:58.621Z,92.15
2023-01-02T18:23:33.444Z,92.19
2023-01-02T18:26:12.070Z,92.10
2023-01-02T18:28:50.947Z,92.14
2023-01-02T18:31:25.560Z,92.41
2023-01-02T18:34:45.757Z,92.73
2023-01-02T18:37:19.361Z,92.93
2023-01-02T18:39:55.570Z,92.61
2023-01-02T18:42:34.667Z,92.76
2023-01-02T18:45:17.034Z,93.86
2023-01-02T18:47:56.844Z,93.04
2023-01-02T18:50:34.264Z,93.94
2023-01-02T18:53:16.868Z,93.97
2023-01-02T18:55:57.313Z,93.19
2023-01-02T18:58:40.949Z,92.75
2023-01-02T19:01:23.824Z,93.09
2023-01-02T19:04:24.461Z,93.00
2023-01-02T19:07:16.860Z,92.91
2023-01-02T19:09:50.361Z,92.93
2023-01-02T19:12:45.871Z,92.95
2023-01-02T19:15:43.861Z,92.88
2023-01-02T19:18:27.401Z,92.31
2023-01-02T19:21:12.051Z,92.45
2023-01-02T19:23:50.163Z,92.59
2023-01-02T19:26:27.833Z,92.70
2023-01-02T19:29:08.676Z,93.21
2023-01-02T19:31:44.851Z,92.47
2023-01-02T19:34:27.908Z,93.16
2023-01-02T19:37:20.210Z,93.26
2023-01-02T19:39:54.872Z,92.75
2023-01-02T19:42:30.967Z,92.90
2023-01-02T19:45:08.681Z,92.28
2023-01-02T19:47:42.171Z,92.82
2023-01-02T19:50:17.500Z,92.71
2023-01-02T19:52:50.877Z,91.89
2023-01-02T19:55:25.277Z,92.25
2023-01-02T19:57:59.451Z,92.03
2023-01-02T20:00:34.499Z,92.23
2023-01-02T20:03:09.308Z,91.93
2023-01-02T20:05:42.663Z,92.14
2023-01-02T20:08:16.103Z,92.19
2023-01-02T20:10:49.651Z,92.13
2023-01-02T20:13:24.037Z,92.67
2023-01-02T20:15:59.790Z,92.05
2023-01-02T20:18:33.276Z,92.21
2023-01-02T20:21:07.095Z,92.62
2023-01-02T20:23:40.365Z,92.61
2023-01-02T20:26:13.482Z,92.38
2023-01-02T20:28:47.105Z,92.30
2023-01-02T20:31:22.118Z,92.40
2023-01-02T20:33:55.855Z,92.80
2023-01-02T20:36:29.617Z,92.10
2023-01-02T20:39:02.897Z,92.60
2023-01-02T20:41:38.594Z,92.72
2023-01-02T20:44:14.208Z,92.60
2023-01-02T20:46:49.182Z,92.73
2023-01-02T20:49:25.037Z,92.78
2023-01-02T20:51:58.484Z,92.57
2023-01-02T20:54:31.875Z,92.68
2023-01-02T20:57:05.411Z,92.45
2023-01-02T20:59:38.887Z,92.60
2023-01-02T21:02:13.958Z,93.21
2023-01-02T21:04:47.505Z,93.14
2023-01-02T21:07:20.762Z,92.88
2023-01-02T21:09:57.517Z,92.17
2023-01-02T21:12:48.744Z,92.35
2023-01-02T21:15:39.836Z,92.97
2023-01-02T21:18:17.347Z,92.58
2023-01-02T21:20:53.123Z,92.92
2023-01-02T21:23:29.114Z,93.03
2023-01-02T21:26:03.059Z,93.56
2023-01-02T21:28:37.120Z,93.30
2023-01-02T21:31:11.400Z,92.86
2023-01-02T21:33:46.490Z,92.82
2023-01-02T21:36:20.016Z,92.59
2023-01-02T21:38:53.395Z,92.59
2023-01-02T21:41:43.671Z,93.01
2023-01-02T21:44:17.098Z,92.84
2023-01-02T21:46:50.502Z,92.45
2023-01-02T21:49:25.146Z,92.40
2023-01-02T21:51:58.443Z,91.97
2023-01-02T21:54:32.155Z,92.61
2023-01-02T21:57:06.035Z,92.46
2023-01-02T21:59:39.406Z,92.26
2023-01-02T22:02:12.593Z,92.84
2023-01-02T22:04:47.500Z,92.54
2023-01-02T22:07:31.807Z,92.54
2023-01-02T22:10:07.703Z,92.12
2023-01-02T22:12:42.092Z,92.59
2023-01-02T22:15:16.038Z,92.86
2023-01-02T22:17:49.586Z,93.13
2023-01-02T22:20:24.407Z,92.92
2023-01-02T22:22:58.004Z,93.69
2023-01-02T22:25:32.304Z,93.03
2023-01-02T22:28:06.056Z,92.37
2023-01-02T22:30:39.290Z,92.29
2023-01-02T22:33:12.637Z,92.61
2023-01-02T22:35:48.392Z,92.88
2023-01-02T22:38:21.652Z,92.38
2023-01-02T22:40:56.037Z,92.13
2023-01-02T22:43:35.638Z,92.45
2023-01-02T22:46:17.706Z,92.31
2023-01-02T22:48:52.151Z,92.23
2023-01-02T22:51:57.793Z,92.36
2023-01-02T22:54:23.879Z,92.18
2023-01-02T22:56:57.390Z,92.90
2023-01-02T22:59:30.741Z,91.91
2023-01-02T23:02:04.063Z,92.20
2023-01-02T23:04:37.397Z,91.88
2023-01-02T23:07:25.134Z,91.68
2023-01-02T23:09:58.967Z,92.24
2023-01-02T23:12:32.506Z,92.11
2023-01-02T23:15:07.377Z,92.16
2023-01-02T23:17:58.380Z,91.87
2023-01-02T23:20:31.738Z,92.07
2023-01-02T23:23:06.538Z,92.29
2023-01-02T23:25:43.110Z,92.53
2023-01-02T23:28:39.279Z,92.28
2023-01-02T23:31:11.675Z,92.60
2023-01-02T23:33:45.014Z,92.20
2023-01-02T23:36:18.519Z,92.75
2023-01-02T23:38:53.609Z,92.21
2023-01-02T23:41:27.509Z,92.38
2023-01-02T23:44:01.848Z,91.68
2023-01-02T23:46:35.447Z,92.53
2023-01-02T23:49:09.310Z,91.76
2023-01-02T23:51:42.883Z,91.89
2023-01-02T23:54:17.863Z,91.68
2023-01-02T23:56:52.163Z,91.46
2023-01-02T23:59:26.262Z,92.83
